Time;durP1;ratioP1;P1;durP2;ratioP2;P2;SDS_P1;SDS_P2;PMS_P1;PMS_P2;Temp;Humidity;BMP_temperature;BMP_pressure;BME280_temperature;BME280_humidity;BME280_pressure;Samples;Min_cycle;Max_cycle;Signal;HPM_P1;HPM_P2
2023/02/27 00:00:54;;;;;;;10.47;9.10;;;-0.30;99.90;;;;;;4917212;29;20451;-71
2023/02/27 00:03:23;;;;;;;10.73;9.63;;;-0.30;99.90;;;;;;4917178;29;20464;-70
2023/02/27 00:05:52;;;;;;;10.83;9.77;;;-0.30;99.90;;;;;;4917118;29;20480;-71
2023/02/27 00:08:20;;;;;;;10.40;9.30;;;-0.30;99.90;;;;;;4917141;29;20451;-72
2023/02/27 00:10:49;;;;;;;11.70;10.00;;;-0.30;99.90;;;;;;4915900;29;20456;-71
2023/02/27 00:13:17;;;;;;;10.13;9.03;;;-0.40;99.90;;;;;;4917086;29;20468;-71
2023/02/27 00:15:46;;;;;;;12.03;10.73;;;-0.40;99.90;;;;;;4915891;29;20448;-72
2023/02/27 00:18:14;;;;;;;11.07;9.40;;;-0.40;99.90;;;;;;4917002;29;20462;-71
2023/02/27 00:20:42;;;;;;;10.57;9.47;;;-0.40;99.90;;;;;;4917149;29;20500;-72
2023/02/27 00:23:14;;;;;;;12.50;9.60;;;-0.50;99.90;;;;;;4915785;29;20472;-71
2023/02/27 00:25:42;;;;;;;9.27;8.33;;;-0.50;99.90;;;;;;4917030;29;20463;-71
2023/02/27 00:28:10;;;;;;;15.13;10.17;;;-0.50;99.90;;;;;;4915817;29;20456;-70
2023/02/27 00:30:39;;;;;;;10.47;8.87;;;-0.50;99.90;;;;;;4915791;29;20484;-70
2023/02/27 00:33:07;;;;;;;9.70;8.60;;;-0.50;99.90;;;;;;4916873;29;20460;-71
2023/02/27 00:35:36;;;;;;;8.97;8.10;;;-0.60;99.90;;;;;;4916987;29;20495;-71
2023/02/27 00:38:05;;;;;;;10.20;8.63;;;-0.60;99.90;;;;;;4915652;29;20461;-70
2023/02/27 00:40:35;;;;;;;8.37;7.67;;;-0.60;99.90;;;;;;4915685;29;20474;-70
2023/02/27 00:43:03;;;;;;;9.40;8.10;;;-0.60;99.90;;;;;;4916882;29;20483;-70
2023/02/27 00:45:31;;;;;;;8.63;7.73;;;-0.60;99.90;;;;;;4915602;29;20472;-71
2023/02/27 00:48:01;;;;;;;9.00;8.10;;;-0.60;99.90;;;;;;4915664;29;20978;-70
2023/02/27 00:50:29;;;;;;;10.43;8.17;;;-0.60;99.90;;;;;;4916779;29;20453;-71
2023/02/27 00:52:57;;;;;;;8.47;7.57;;;-0.70;99.90;;;;;;4917016;29;20468;-71
2023/02/27 00:55:25;;;;;;;8.70;7.63;;;-0.70;99.90;;;;;;4917046;29;20437;-70
2023/02/27 00:57:55;;;;;;;9.47;8.13;;;-0.70;99.90;;;;;;4917054;29;20440;-70
2023/02/27 01:00:24;;;;;;;9.90;7.80;;;-0.70;99.90;;;;;;4915726;29;20554;-71
2023/02/27 01:02:54;;;;;;;9.80;8.80;;;-0.70;99.90;;;;;;4920274;29;20516;-70
2023/02/27 01:05:24;;;;;;;8.90;8.00;;;-0.70;99.90;;;;;;4920267;29;20558;-70
2023/02/27 01:07:53;;;;;;;8.93;7.93;;;-0.70;99.90;;;;;;4920233;29;20444;-71
2023/02/27 01:10:22;;;;;;;9.40;7.80;;;-0.80;99.90;;;;;;4918978;29;20508;-71
2023/02/27 01:12:50;;;;;;;9.03;7.70;;;-0.80;99.90;;;;;;4918862;29;20482;-71
2023/02/27 01:15:20;;;;;;;8.30;6.90;;;-0.80;99.90;;;;;;4920077;29;20884;-70
2023/02/27 01:17:48;;;;;;;9.67;8.30;;;-0.80;99.90;;;;;;4919925;29;20448;-72
2023/02/27 01:20:17;;;;;;;8.67;7.30;;;-0.80;99.90;;;;;;4919970;29;20440;-71
2023/02/27 01:22:45;;;;;;;10.50;9.00;;;-0.80;99.90;;;;;;4918613;29;20475;-71
2023/02/27 01:25:13;;;;;;;9.50;7.47;;;-0.80;99.90;;;;;;4918659;29;20479;-71
2023/02/27 01:27:43;;;;;;;9.70;7.33;;;-0.90;99.90;;;;;;4918874;29;20531;-70
2023/02/27 01:30:13;;;;;;;9.23;7.37;;;-0.90;99.90;;;;;;4921654;29;20462;-71
2023/02/27 01:32:43;;;;;;;10.63;7.60;;;-0.90;99.90;;;;;;4918997;29;20528;-70
2023/02/27 01:35:11;;;;;;;11.03;8.43;;;-0.90;99.90;;;;;;4919793;29;20464;-71
2023/02/27 01:37:40;;;;;;;9.00;6.30;;;-0.90;99.90;;;;;;4919967;29;20444;-71
2023/02/27 01:40:09;;;;;;;9.80;7.17;;;-0.90;99.90;;;;;;4918386;29;20464;-71
2023/02/27 01:42:37;;;;;;;8.37;6.70;;;-1.00;99.90;;;;;;4919547;29;20853;-71
2023/02/27 01:45:28;;;;;;;8.10;7.30;;;-1.00;99.90;;;;;;4918349;29;20476;-71
2023/02/27 01:48:04;;;;;;;11.20;7.40;;;-1.00;99.90;;;;;;4915064;29;20460;-71
2023/02/27 01:50:36;;;;;;;10.00;7.47;;;-1.00;99.90;;;;;;4918358;29;20456;-71
2023/02/27 01:53:05;;;;;;;9.80;7.93;;;-1.00;99.90;;;;;;4919425;29;20559;-71
2023/02/27 01:55:38;;;;;;;9.13;7.47;;;-1.10;99.90;;;;;;4918316;29;20455;-71
2023/02/27 01:58:09;;;;;;;8.33;7.20;;;-1.10;99.90;;;;;;4918169;29;20437;-71
2023/02/27 02:00:38;;;;;;;11.07;8.07;;;-1.10;99.90;;;;;;4918071;29;20503;-71
2023/02/27 02:03:16;;;;;;;9.47;7.60;;;-1.10;99.90;;;;;;4919318;29;20519;-71
2023/02/27 02:05:46;;;;;;;11.23;6.70;;;-1.10;99.90;;;;;;4919173;29;20544;-71
2023/02/27 02:08:19;;;;;;;8.13;7.33;;;-1.10;99.90;;;;;;4917971;29;20917;-71
2023/02/27 02:10:50;;;;;;;8.07;7.20;;;-1.10;99.90;;;;;;4917937;29;20933;-71
2023/02/27 02:13:20;;;;;;;8.67;7.33;;;-1.10;99.90;;;;;;4917521;29;20500;-71
2023/02/27 02:15:58;;;;;;;8.50;7.07;;;-1.10;99.90;;;;;;4917778;29;20453;-71
2023/02/27 02:18:38;;;;;;;9.40;6.70;;;-1.20;99.90;;;;;;4917718;29;20456;-71
2023/02/27 02:21:49;;;;;;;9.03;8.13;;;-1.10;99.90;;;;;;4917955;29;20535;-71
2023/02/27 02:24:45;;;;;;;7.97;7.17;;;-1.20;99.90;;;;;;4905547;29;20523;-71
2023/02/27 02:27:28;;;;;;;9.67;7.37;;;-1.20;99.90;;;;;;4919149;29;20846;-71
2023/02/27 02:30:39;;;;;;;8.27;6.37;;;-1.20;99.90;;;;;;4917686;29;20499;-71
2023/02/27 02:33:35;;;;;;;10.83;6.90;;;-1.30;99.90;;;;;;4917983;29;20476;-71
2023/02/27 02:36:42;;;;;;;9.63;8.00;;;-1.30;99.90;;;;;;4918979;29;20413;-71
2023/02/27 02:39:32;;;;;;;10.53;8.30;;;-1.30;99.90;;;;;;4917429;29;20468;-71
2023/02/27 02:42:04;;;;;;;10.73;7.77;;;-1.30;99.90;;;;;;4917120;29;20476;-72
2023/02/27 02:44:41;;;;;;;9.40;7.87;;;-1.30;99.90;;;;;;4917346;29;20558;-71
2023/02/27 02:47:18;;;;;;;9.90;7.53;;;-1.40;99.90;;;;;;4918968;29;21009;-71
2023/02/27 02:50:02;;;;;;;9.93;8.07;;;-1.30;99.90;;;;;;4918691;29;20435;-71
2023/02/27 02:52:43;;;;;;;10.10;6.90;;;-1.40;99.90;;;;;;4917151;29;20994;-71
2023/02/27 02:55:18;;;;;;;8.90;7.00;;;-1.30;99.90;;;;;;4917115;29;20933;-71
2023/02/27 02:57:52;;;;;;;13.80;8.40;;;-1.40;99.90;;;;;;4917085;29;20452;-70
2023/02/27 03:00:24;;;;;;;9.73;7.50;;;-1.40;99.90;;;;;;4917093;29;20445;-70
2023/02/27 03:02:56;;;;;;;9.60;7.20;;;-1.40;99.90;;;;;;4916872;29;20479;-71
2023/02/27 03:05:28;;;;;;;9.03;7.80;;;-1.40;99.90;;;;;;4916866;29;20945;-70
2023/02/27 03:08:02;;;;;;;10.10;7.57;;;-1.40;99.90;;;;;;4918130;29;20911;-71
2023/02/27 03:10:36;;;;;;;9.13;6.53;;;-1.40;99.90;;;;;;4916828;29;20475;-71
2023/02/27 03:13:09;;;;;;;8.77;5.53;;;-1.40;99.90;;;;;;4916781;29;20471;-70
2023/02/27 03:15:44;;;;;;;10.80;8.27;;;-1.50;99.90;;;;;;4916711;29;20461;-70
2023/02/27 03:18:19;;;;;;;10.47;7.60;;;-1.40;99.90;;;;;;4916520;29;20467;-70
2023/02/27 03:20:51;;;;;;;12.93;7.53;;;-1.50;99.90;;;;;;4916718;29;20456;-71
2023/02/27 03:23:27;;;;;;;9.10;6.80;;;-1.50;99.90;;;;;;4915925;29;20503;-71
2023/02/27 03:25:59;;;;;;;9.40;7.73;;;-1.50;99.90;;;;;;4916445;29;20555;-71
2023/02/27 03:28:34;;;;;;;9.70;7.10;;;-1.50;99.90;;;;;;4916835;29;20456;-71
2023/02/27 03:31:08;;;;;;;10.97;6.83;;;-1.50;99.90;;;;;;4917563;29;20536;-70
2023/02/27 03:33:43;;;;;;;9.13;7.33;;;-1.60;99.90;;;;;;4916450;29;20455;-70
2023/02/27 03:36:19;;;;;;;6.87;5.90;;;-1.60;99.90;;;;;;4916447;29;20535;-70
2023/02/27 03:38:54;;;;;;;8.20;6.50;;;-1.60;99.90;;;;;;4916384;29;20475;-70
2023/02/27 03:41:29;;;;;;;9.20;8.30;;;-1.60;99.90;;;;;;4916239;29;20448;-70
2023/02/27 03:44:25;;;;;;;8.20;6.20;;;-1.60;99.90;;;;;;4917335;29;20495;-70
2023/02/27 03:46:54;;;;;;;12.73;8.77;;;-1.60;99.90;;;;;;4916311;29;20555;-70
2023/02/27 03:49:22;;;;;;;13.33;9.87;;;-1.70;99.90;;;;;;4916236;29;20476;-70
2023/02/27 03:51:50;;;;;;;13.07;9.30;;;-1.70;99.90;;;;;;4916025;29;20508;-70
2023/02/27 03:54:22;;;;;;;9.70;7.70;;;-1.70;99.90;;;;;;4916249;29;20958;-70
2023/02/27 03:56:55;;;;;;;8.23;7.10;;;-1.70;99.90;;;;;;4917634;29;20428;-70
2023/02/27 03:59:25;;;;;;;11.83;8.60;;;-1.70;99.90;;;;;;4916128;29;20440;-70
2023/02/27 04:01:55;;;;;;;8.70;7.40;;;-1.70;99.90;;;;;;4916002;29;21068;-70
2023/02/27 04:04:26;;;;;;;9.97;7.80;;;-1.70;99.90;;;;;;4916048;29;20444;-70
2023/02/27 04:07:24;;;;;;;10.23;8.30;;;-1.70;99.90;;;;;;4917410;29;20927;-70
2023/02/27 04:10:16;;;;;;;9.57;7.57;;;-1.80;99.90;;;;;;4916010;29;20443;-70
2023/02/27 04:13:23;;;;;;;25.60;18.60;;;-1.80;99.90;;;;;;4915140;29;20494;-71
2023/02/27 04:16:05;;;;;;;34.43;24.70;;;-1.80;99.90;;;;;;4917250;29;20516;-71
2023/02/27 04:18:51;;;;;;;21.13;14.20;;;-1.80;99.90;;;;;;4915816;29;20467;-70
2023/02/27 04:21:27;;;;;;;14.60;11.10;;;-1.80;99.90;;;;;;4915802;29;20449;-71
2023/02/27 04:24:02;;;;;;;12.60;10.40;;;-1.80;99.90;;;;;;4917093;29;20442;-70
2023/02/27 04:26:33;;;;;;;10.23;8.20;;;-1.80;99.90;;;;;;4917155;29;20464;-71
2023/02/27 04:29:08;;;;;;;10.87;8.73;;;-1.80;99.90;;;;;;4917618;29;20893;-70
2023/02/27 04:31:44;;;;;;;11.80;9.00;;;-1.90;99.90;;;;;;4915717;29;20989;-70
2023/02/27 04:34:18;;;;;;;10.23;8.50;;;-1.90;99.90;;;;;;4915754;29;20881;-69
2023/02/27 04:36:49;;;;;;;11.60;7.60;;;-1.90;99.90;;;;;;4920905;29;20483;-70
2023/02/27 04:39:22;;;;;;;12.60;9.20;;;-1.90;99.90;;;;;;4919645;29;20452;-70
2023/02/27 04:41:54;;;;;;;10.70;8.60;;;-1.90;99.90;;;;;;4919434;29;20567;-70
2023/02/27 04:44:25;;;;;;;13.53;9.40;;;-1.90;99.90;;;;;;4921019;29;20435;-70
2023/02/27 04:46:56;;;;;;;11.17;9.30;;;-2.00;99.90;;;;;;4920777;29;20467;-69
2023/02/27 04:49:28;;;;;;;11.47;9.03;;;-2.00;99.90;;;;;;4919461;29;20452;-70
2023/02/27 04:52:00;;;;;;;9.73;8.60;;;-2.00;99.90;;;;;;4919367;29;20574;-69
2023/02/27 04:54:32;;;;;;;11.10;9.53;;;-2.00;99.90;;;;;;4920658;29;20447;-69
2023/02/27 04:57:06;;;;;;;15.63;10.43;;;-2.00;99.90;;;;;;4921101;29;20467;-69
2023/02/27 04:59:39;;;;;;;13.37;9.90;;;-2.10;99.90;;;;;;4919330;29;20501;-70
2023/02/27 05:02:12;;;;;;;12.73;10.37;;;-2.10;99.90;;;;;;4920477;29;20812;-70
2023/02/27 05:04:43;;;;;;;13.03;10.37;;;-2.10;99.90;;;;;;4920662;29;20439;-70
2023/02/27 05:07:17;;;;;;;14.20;10.27;;;-2.10;99.90;;;;;;4919060;29;20536;-70
2023/02/27 05:09:49;;;;;;;14.67;9.93;;;-2.10;99.90;;;;;;4920476;29;20442;-70
2023/02/27 05:12:22;;;;;;;13.13;9.60;;;-2.10;99.90;;;;;;4919099;29;20479;-70
2023/02/27 05:14:58;;;;;;;13.87;11.03;;;-2.10;99.90;;;;;;4920447;29;20424;-70
2023/02/27 05:17:29;;;;;;;13.90;10.20;;;-2.10;99.90;;;;;;4919987;29;20959;-70
2023/02/27 05:19:58;;;;;;;14.43;10.80;;;-2.10;99.90;;;;;;4918988;29;20814;-70
2023/02/27 05:22:36;;;;;;;14.33;9.87;;;-2.10;99.90;;;;;;4918767;29;20981;-70
2023/02/27 05:25:13;;;;;;;13.33;9.90;;;-2.10;99.90;;;;;;4920415;29;20432;-70
2023/02/27 05:27:47;;;;;;;14.87;10.47;;;-2.10;99.90;;;;;;4920055;29;20502;-70
2023/02/27 05:30:25;;;;;;;13.43;9.77;;;-2.10;99.90;;;;;;4920252;29;20789;-70
2023/02/27 05:32:58;;;;;;;12.90;8.73;;;-2.10;99.90;;;;;;4920569;29;20459;-70
2023/02/27 05:35:31;;;;;;;14.10;9.87;;;-2.20;99.90;;;;;;4918672;29;20833;-70
2023/02/27 05:38:06;;;;;;;11.17;8.73;;;-2.20;99.90;;;;;;4918755;29;20496;-70
2023/02/27 05:40:37;;;;;;;14.97;9.40;;;-2.20;99.90;;;;;;4919989;29;20428;-70
2023/02/27 05:43:10;;;;;;;12.13;9.00;;;-2.10;99.90;;;;;;4919936;29;20456;-70
2023/02/27 05:45:43;;;;;;;12.07;9.03;;;-2.20;99.90;;;;;;4918479;29;20810;-70
2023/02/27 05:48:14;;;;;;;11.70;9.03;;;-2.20;99.90;;;;;;4917712;29;20559;-70
2023/02/27 05:50:48;;;;;;;10.70;8.73;;;-2.20;99.90;;;;;;4919870;29;20876;-70
2023/02/27 05:53:20;;;;;;;12.47;9.80;;;-2.10;99.90;;;;;;4918368;29;20487;-69
2023/02/27 05:55:51;;;;;;;14.60;9.50;;;-2.10;99.90;;;;;;4919950;29;20434;-69
2023/02/27 05:58:23;;;;;;;13.20;8.90;;;-2.10;99.90;;;;;;4920201;29;20460;-69
2023/02/27 06:00:57;;;;;;;13.90;8.93;;;-2.10;99.90;;;;;;4919605;29;20437;-69
2023/02/27 06:03:27;;;;;;;13.43;9.40;;;-2.10;99.90;;;;;;4918125;29;20891;-70
2023/02/27 06:05:58;;;;;;;15.00;10.07;;;-2.10;99.90;;;;;;4919321;29;20953;-70
2023/02/27 06:08:27;;;;;;;11.90;9.30;;;-2.10;99.90;;;;;;4920479;29;20463;-70
2023/02/27 06:10:55;;;;;;;11.40;9.50;;;-2.00;99.90;;;;;;4917942;29;20444;-70
2023/02/27 06:13:24;;;;;;;14.73;10.70;;;-2.10;99.90;;;;;;4919148;29;20799;-70
2023/02/27 06:15:54;;;;;;;12.33;9.77;;;-2.00;99.90;;;;;;4919112;29;20451;-70
2023/02/27 06:18:22;;;;;;;13.10;9.70;;;-2.10;99.90;;;;;;4917700;29;20472;-70
2023/02/27 06:20:50;;;;;;;11.97;9.53;;;-2.00;99.90;;;;;;4917876;29;20551;-69
2023/02/27 06:23:19;;;;;;;17.73;10.00;;;-2.00;99.90;;;;;;4917691;29;20480;-70
2023/02/27 06:25:48;;;;;;;12.33;10.00;;;-2.10;99.90;;;;;;4919149;29;20448;-70
2023/02/27 06:28:16;;;;;;;11.07;9.43;;;-2.10;99.90;;;;;;4917614;29;20508;-70
2023/02/27 06:30:44;;;;;;;12.40;9.37;;;-2.10;99.90;;;;;;4918875;29;20448;-71
2023/02/27 06:33:15;;;;;;;11.23;9.70;;;-2.00;99.90;;;;;;4918714;29;20476;-70
2023/02/27 06:35:43;;;;;;;14.80;11.00;;;-2.00;99.90;;;;;;4917412;29;20512;-70
2023/02/27 06:38:12;;;;;;;13.00;10.43;;;-2.00;99.90;;;;;;4918882;29;20476;-70
2023/02/27 06:40:40;;;;;;;17.40;11.17;;;-2.00;99.90;;;;;;4919185;29;20488;-69
2023/02/27 06:43:08;;;;;;;13.00;11.00;;;-2.00;99.90;;;;;;4918541;29;20515;-70
2023/02/27 06:45:37;;;;;;;10.93;9.50;;;-2.00;99.90;;;;;;4918553;29;20937;-70
2023/02/27 06:48:06;;;;;;;14.10;10.07;;;-2.00;99.90;;;;;;4917224;29;20476;-70
2023/02/27 06:50:35;;;;;;;12.40;10.10;;;-2.00;99.90;;;;;;4918504;29;20447;-70
2023/02/27 06:53:03;;;;;;;14.17;10.20;;;-1.90;99.90;;;;;;4918297;29;20506;-70
2023/02/27 06:55:31;;;;;;;15.20;10.40;;;-1.90;99.90;;;;;;4918658;29;20443;-71
2023/02/27 06:58:00;;;;;;;13.53;11.60;;;-1.90;99.90;;;;;;4916458;29;20459;-70
2023/02/27 07:00:28;;;;;;;25.53;18.23;;;-1.90;99.90;;;;;;4918084;29;21143;-70
2023/02/27 07:02:57;;;;;;;25.60;17.03;;;-1.90;99.90;;;;;;4916843;29;20561;-69
2023/02/27 07:05:25;;;;;;;22.67;15.13;;;-1.80;99.90;;;;;;4917031;29;20457;-70
2023/02/27 07:07:54;;;;;;;16.40;11.87;;;-1.80;99.90;;;;;;4918324;29;20475;-71
2023/02/27 07:10:25;;;;;;;13.93;11.13;;;-1.80;99.90;;;;;;4918690;29;20902;-71
2023/02/27 07:12:54;;;;;;;13.00;11.53;;;-1.80;99.90;;;;;;4918036;29;20464;-70
2023/02/27 07:15:22;;;;;;;14.23;11.40;;;-1.70;99.90;;;;;;4916788;29;20452;-71
2023/02/27 07:17:53;;;;;;;14.10;12.73;;;-1.70;99.90;;;;;;4918104;29;20520;-70
2023/02/27 07:20:21;;;;;;;15.83;14.23;;;-1.70;99.90;;;;;;4916926;29;20451;-71
2023/02/27 07:22:49;;;;;;;21.33;17.43;;;-1.60;99.90;;;;;;4917802;29;20467;-71
2023/02/27 07:25:19;;;;;;;21.33;17.47;;;-1.50;99.90;;;;;;4918427;29;20444;-70
2023/02/27 07:27:49;;;;;;;21.00;17.10;;;-1.50;99.90;;;;;;4918314;29;20500;-70
2023/02/27 07:30:18;;;;;;;19.70;17.60;;;-1.40;99.90;;;;;;4919398;29;20500;-71
2023/02/27 07:32:46;;;;;;;19.27;17.20;;;-1.40;99.90;;;;;;4918572;29;20472;-70
2023/02/27 07:35:15;;;;;;;17.20;14.40;;;-1.30;99.90;;;;;;4917869;29;20460;-70
2023/02/27 07:37:43;;;;;;;16.47;14.87;;;-1.20;99.90;;;;;;4917485;29;20456;-70
2023/02/27 07:40:12;;;;;;;17.93;15.30;;;-1.20;99.90;;;;;;4918855;29;20448;-71
2023/02/27 07:42:41;;;;;;;15.30;13.73;;;-1.10;99.90;;;;;;4920133;29;20460;-70
2023/02/27 07:45:11;;;;;;;15.60;13.50;;;-1.00;99.90;;;;;;4921526;29;20449;-72
2023/02/27 07:47:39;;;;;;;14.53;12.63;;;-0.90;99.90;;;;;;4924468;29;20488;-70
2023/02/27 07:50:08;;;;;;;17.43;12.13;;;-0.90;99.90;;;;;;4925120;29;20452;-70
2023/02/27 07:52:36;;;;;;;13.90;11.93;;;-0.80;99.90;;;;;;4924647;29;20479;-70
2023/02/27 07:55:04;;;;;;;15.30;12.87;;;-0.70;99.90;;;;;;4924532;29;20451;-70
2023/02/27 07:57:32;;;;;;;14.77;13.37;;;-0.60;99.90;;;;;;4923417;29;20452;-71
2023/02/27 08:00:03;;;;;;;16.60;13.40;;;-0.50;99.90;;;;;;4921625;29;20451;-71
2023/02/27 08:02:39;;;;;;;16.20;14.60;;;-0.40;99.90;;;;;;4920563;29;20869;-72
2023/02/27 08:05:08;;;;;;;15.90;14.30;;;-0.30;99.90;;;;;;4919479;29;20448;-71
2023/02/27 08:07:36;;;;;;;14.43;12.97;;;-0.20;99.90;;;;;;4918320;29;20456;-71
2023/02/27 08:10:05;;;;;;;17.30;14.93;;;-0.10;99.90;;;;;;4917841;29;20484;-71
2023/02/27 08:12:33;;;;;;;15.57;13.70;;;0.00;99.90;;;;;;4916107;29;20512;-71
2023/02/27 08:15:04;;;;;;;15.93;14.30;;;0.10;99.90;;;;;;4915958;29;20456;-71
2023/02/27 08:17:32;;;;;;;16.50;14.80;;;0.20;99.90;;;;;;4917348;29;20463;-71
2023/02/27 08:20:00;;;;;;;14.87;13.47;;;0.40;99.90;;;;;;4917220;29;20535;-71
2023/02/27 08:22:28;;;;;;;15.77;14.17;;;0.50;99.90;;;;;;4915888;29;20469;-71
2023/02/27 08:24:56;;;;;;;13.50;12.20;;;0.70;99.90;;;;;;4917686;29;20862;-71
2023/02/27 08:27:24;;;;;;;16.63;13.50;;;0.80;99.90;;;;;;4917281;29;20437;-71
2023/02/27 08:29:52;;;;;;;14.27;12.87;;;1.00;99.90;;;;;;4916981;29;20474;-71
2023/02/27 08:32:22;;;;;;;13.90;12.60;;;1.20;99.90;;;;;;4916996;29;20452;-71
2023/02/27 08:34:50;;;;;;;13.70;12.30;;;1.30;99.90;;;;;;4915737;29;20495;-71
2023/02/27 08:37:18;;;;;;;14.60;11.20;;;1.40;99.90;;;;;;4915668;29;20455;-71
2023/02/27 08:39:46;;;;;;;12.23;11.00;;;1.60;99.90;;;;;;4916900;29;20447;-71
2023/02/27 08:42:14;;;;;;;12.90;10.50;;;1.70;99.90;;;;;;4917120;29;20461;-71
2023/02/27 08:44:42;;;;;;;14.43;10.00;;;1.80;99.90;;;;;;4916869;29;20440;-72
2023/02/27 08:47:10;;;;;;;11.70;8.40;;;1.90;99.90;;;;;;4916872;29;20954;-72
2023/02/27 08:49:40;;;;;;;13.23;9.70;;;2.00;99.90;;;;;;4915504;29;20484;-72
2023/02/27 08:52:08;;;;;;;10.60;8.50;;;2.00;99.90;;;;;;4915458;29;20994;-72
2023/02/27 08:54:36;;;;;;;12.97;9.63;;;2.10;99.90;;;;;;4915598;29;20461;-72
2023/02/27 08:57:05;;;;;;;15.10;10.87;;;2.10;99.90;;;;;;4915538;29;20446;-72
2023/02/27 08:59:33;;;;;;;12.20;10.00;;;2.20;99.90;;;;;;4915497;29;20468;-72
2023/02/27 09:02:01;;;;;;;12.80;11.40;;;2.30;99.90;;;;;;4917061;29;20460;-72
2023/02/27 09:04:29;;;;;;;12.60;11.07;;;2.30;99.90;;;;;;4916728;29;20445;-72
2023/02/27 09:06:59;;;;;;;12.33;9.43;;;2.40;99.90;;;;;;4916734;29;20466;-72
2023/02/27 09:09:27;;;;;;;14.80;9.80;;;2.40;99.90;;;;;;4915529;29;20846;-72
2023/02/27 09:11:55;;;;;;;15.60;10.50;;;2.40;99.90;;;;;;4915334;29;20569;-72
2023/02/27 09:14:24;;;;;;;16.80;10.07;;;2.40;99.90;;;;;;4917198;29;20457;-72
2023/02/27 09:16:52;;;;;;;12.00;9.67;;;2.50;99.90;;;;;;4916726;29;20461;-72
2023/02/27 09:19:20;;;;;;;11.93;9.70;;;2.50;99.90;;;;;;4915460;29;20957;-72
2023/02/27 09:21:48;;;;;;;11.83;8.57;;;2.60;99.90;;;;;;4916104;29;20480;-72
2023/02/27 09:24:17;;;;;;;12.37;6.77;;;2.60;99.90;;;;;;4920271;29;20983;-73
2023/02/27 09:26:48;;;;;;;9.87;6.17;;;2.70;99.90;;;;;;4918747;29;20827;-73
2023/02/27 09:29:17;;;;;;;11.50;6.30;;;2.70;99.90;;;;;;4918855;29;20476;-73
2023/02/27 09:31:45;;;;;;;8.00;6.00;;;2.70;99.90;;;;;;4918559;29;20884;-73
2023/02/27 09:34:13;;;;;;;10.27;5.03;;;2.80;99.90;;;;;;4919827;29;21024;-73
2023/02/27 09:36:41;;;;;;;10.00;5.07;;;2.90;99.90;;;;;;4918586;29;20453;-73
2023/02/27 09:39:10;;;;;;;10.57;5.90;;;2.90;99.90;;;;;;4919877;29;20480;-73
2023/02/27 09:41:54;;;;;;;8.70;5.20;;;3.00;99.90;;;;;;4919923;29;20527;-73
2023/02/27 09:44:32;;;;;;;13.87;4.67;;;3.10;99.90;;;;;;4918518;29;20934;-73
2023/02/27 09:47:18;;;;;;;8.67;5.67;;;3.10;99.90;;;;;;4919691;29;20534;-73
2023/02/27 09:49:58;;;;;;;7.33;5.20;;;3.20;99.90;;;;;;4919715;29;20823;-73
2023/02/27 09:52:27;;;;;;;10.07;5.33;;;3.20;99.90;;;;;;4919683;29;20456;-73
2023/02/27 09:54:55;;;;;;;8.07;5.47;;;3.20;99.90;;;;;;4919381;29;20441;-73
2023/02/27 09:57:37;;;;;;;10.40;5.70;;;3.30;99.90;;;;;;4918481;29;20456;-73
2023/02/27 10:00:11;;;;;;;11.37;5.97;;;3.40;99.90;;;;;;4919697;29;20427;-73
2023/02/27 10:02:55;;;;;;;8.23;5.30;;;3.40;99.90;;;;;;4919856;29;20511;-73
2023/02/27 10:05:35;;;;;;;8.70;4.90;;;3.50;99.90;;;;;;4919254;29;20484;-73
2023/02/27 10:08:11;;;;;;;7.90;5.70;;;3.50;99.90;;;;;;4919563;29;20426;-73
2023/02/27 10:10:46;;;;;;;9.20;5.60;;;3.50;99.90;;;;;;4917816;29;20483;-73
2023/02/27 10:13:36;;;;;;;11.23;5.10;;;3.60;99.90;;;;;;4917866;29;20524;-73
2023/02/27 10:16:07;;;;;;;9.30;5.50;;;3.70;99.90;;;;;;4917922;29;20447;-73
2023/02/27 10:18:44;;;;;;;9.40;5.53;;;3.70;99.90;;;;;;4917743;29;20527;-73
2023/02/27 10:21:16;;;;;;;13.57;6.63;;;3.70;99.90;;;;;;4917699;29;20468;-73
2023/02/27 10:23:52;;;;;;;13.13;6.93;;;3.80;99.90;;;;;;4919290;29;20455;-73
2023/02/27 10:26:22;;;;;;;11.43;5.90;;;3.90;99.90;;;;;;4919193;29;20487;-73
2023/02/27 10:28:52;;;;;;;7.10;5.33;;;3.90;99.90;;;;;;4917678;29;20525;-73
2023/02/27 10:31:24;;;;;;;9.23;6.03;;;3.90;99.90;;;;;;4918661;29;20543;-73
2023/02/27 10:33:53;;;;;;;11.70;5.40;;;4.00;99.90;;;;;;4918697;29;20524;-73
2023/02/27 10:36:22;;;;;;;8.23;5.10;;;4.00;99.90;;;;;;4919145;29;20454;-73
2023/02/27 10:39:06;;;;;;;15.10;9.90;;;4.00;99.90;;;;;;4918162;29;20474;-73
2023/02/27 10:41:36;;;;;;;10.63;7.17;;;4.10;99.90;;;;;;4919283;29;20555;-73
2023/02/27 10:44:06;;;;;;;17.33;12.27;;;4.10;99.90;;;;;;4918556;29;20477;-73
2023/02/27 10:46:37;;;;;;;10.63;6.10;;;4.10;99.90;;;;;;4918769;29;20449;-72
2023/02/27 10:49:15;;;;;;;34.33;25.33;;;4.20;99.90;;;;;;4917309;29;20531;-72
2023/02/27 10:51:46;;;;;;;7.40;4.00;;;4.20;99.90;;;;;;4917174;29;20873;-73
2023/02/27 10:54:20;;;;;;;8.60;4.50;;;4.30;99.90;;;;;;4918670;29;20455;-73
2023/02/27 10:56:51;;;;;;;5.70;3.43;;;4.30;99.90;;;;;;4917147;29;20455;-72
2023/02/27 10:59:22;;;;;;;8.80;6.10;;;4.30;99.90;;;;;;4918582;29;20539;-72
2023/02/27 11:01:53;;;;;;;7.90;4.23;;;4.40;99.90;;;;;;4916973;29;20869;-73
2023/02/27 11:04:31;;;;;;;6.23;4.33;;;4.40;99.90;;;;;;4917013;29;20480;-73
2023/02/27 11:07:02;;;;;;;6.87;4.30;;;4.50;99.90;;;;;;4918170;29;20797;-72
2023/02/27 11:09:32;;;;;;;7.27;3.53;;;4.50;99.90;;;;;;4918610;29;20524;-73
2023/02/27 11:12:12;;;;;;;5.80;3.20;;;4.60;99.90;;;;;;4917998;29;20455;-73
2023/02/27 11:14:51;;;;;;;6.73;4.17;;;4.60;99.90;;;;;;4918076;29;20535;-72
2023/02/27 11:17:27;;;;;;;7.13;4.33;;;4.70;99.90;;;;;;4918316;29;20494;-73
2023/02/27 11:19:57;;;;;;;4.83;3.10;;;4.80;99.90;;;;;;4917054;29;20479;-72
2023/02/27 11:22:27;;;;;;;8.90;4.23;;;4.90;99.90;;;;;;4917912;29;20471;-72
2023/02/27 11:25:19;;;;;;;8.50;3.70;;;4.90;99.90;;;;;;4916680;29;20579;-72
2023/02/27 11:27:48;;;;;;;5.10;2.87;;;5.00;99.90;;;;;;4916570;29;20473;-72
2023/02/27 11:30:27;;;;;;;6.87;3.23;;;5.00;99.90;;;;;;4916499;29;21076;-72
2023/02/27 11:32:57;;;;;;;6.17;2.80;;;5.00;99.90;;;;;;4916589;29;20566;-72
2023/02/27 11:35:28;;;;;;;6.70;3.00;;;5.00;99.90;;;;;;4918208;29;20854;-72
2023/02/27 11:38:00;;;;;;;7.13;2.70;;;5.00;99.90;;;;;;4918024;29;20425;-72
2023/02/27 11:40:31;;;;;;;4.93;2.23;;;5.00;99.90;;;;;;4917677;29;20903;-72
2023/02/27 11:43:03;;;;;;;4.90;2.20;;;5.00;99.90;;;;;;4917702;29;21025;-72
2023/02/27 11:45:36;;;;;;;5.63;2.10;;;5.00;99.90;;;;;;4917107;29;20492;-72
2023/02/27 11:48:28;;;;;;;5.17;2.27;;;5.10;99.90;;;;;;4916299;29;20490;-72
2023/02/27 11:51:21;;;;;;;5.10;2.10;;;5.10;99.90;;;;;;4916247;29;21013;-72
2023/02/27 11:54:14;;;;;;;4.73;1.90;;;5.10;99.90;;;;;;4917752;29;20428;-72
2023/02/27 11:56:46;;;;;;;5.93;2.30;;;5.10;99.90;;;;;;4916152;29;20456;-72
2023/02/27 11:59:29;;;;;;;4.37;2.07;;;5.20;99.90;;;;;;4916168;29;20820;-72
2023/02/27 12:02:04;;;;;;;7.00;2.50;;;5.20;99.90;;;;;;4917722;29;20577;-72
2023/02/27 12:04:43;;;;;;;6.10;2.97;;;5.20;99.90;;;;;;4916072;29;20452;-72
2023/02/27 12:07:19;;;;;;;4.23;1.70;;;5.30;99.90;;;;;;4916032;29;20448;-72
2023/02/27 12:09:53;;;;;;;4.87;1.87;;;5.30;99.90;;;;;;4917711;29;20429;-73
2023/02/27 12:12:25;;;;;;;4.10;1.70;;;5.40;99.90;;;;;;4917315;29;20950;-73
2023/02/27 12:15:03;;;;;;;5.00;2.10;;;5.40;99.90;;;;;;4917292;29;20429;-72
2023/02/27 12:17:39;;;;;;;3.57;2.00;;;5.50;99.90;;;;;;4915802;29;20491;-72
2023/02/27 12:20:25;;;;;;;4.80;2.30;;;5.50;99.90;;;;;;4917420;29;20442;-72
2023/02/27 12:22:54;;;;;;;4.13;1.97;;;5.50;99.90;;;;;;4915804;29;20482;-72
2023/02/27 12:25:33;;;;;;;5.93;2.30;;;5.50;99.90;;;;;;4917092;29;20444;-72
2023/02/27 12:28:07;;;;;;;5.57;2.77;;;5.60;99.90;;;;;;4916444;29;20448;-72
2023/02/27 12:30:42;;;;;;;6.30;2.37;;;5.60;99.90;;;;;;4915721;29;20476;-72
2023/02/27 12:33:20;;;;;;;5.70;2.40;;;5.60;99.90;;;;;;4917048;29;20464;-72
2023/02/27 12:35:55;;;;;;;4.13;2.40;;;5.70;99.90;;;;;;4917241;29;20432;-72
2023/02/27 12:38:24;;;;;;;4.30;2.23;;;5.70;99.90;;;;;;4917232;29;20455;-72
2023/02/27 12:41:08;;;;;;;4.40;2.47;;;5.70;99.90;;;;;;4917441;29;20436;-72
2023/02/27 12:43:44;;;;;;;5.70;2.30;;;5.80;99.90;;;;;;4915792;29;20452;-72
2023/02/27 12:46:24;;;;;;;4.00;2.33;;;5.80;99.90;;;;;;4917453;29;20789;-72
2023/02/27 12:49:06;;;;;;;3.90;2.23;;;5.80;99.90;;;;;;4917161;29;20895;-72
2023/02/27 12:51:47;;;;;;;5.47;2.60;;;5.80;99.90;;;;;;4916755;29;20915;-73
2023/02/27 12:54:38;;;;;;;4.20;2.13;;;5.90;99.90;;;;;;4915574;29;20451;-72
2023/02/27 12:57:25;;;;;;;5.00;2.57;;;6.00;99.90;;;;;;4918674;29;20440;-72
2023/02/27 13:00:05;;;;;;;5.00;2.73;;;6.00;99.90;;;;;;4920690;29;20421;-72
2023/02/27 13:02:50;;;;;;;6.53;3.13;;;6.10;99.90;;;;;;4920664;29;20463;-73
2023/02/27 13:05:36;;;;;;;6.93;2.50;;;6.20;99.90;;;;;;4919563;29;20470;-73
2023/02/27 13:08:12;;;;;;;6.23;2.70;;;6.20;99.90;;;;;;4919116;29;20479;-72
2023/02/27 13:10:48;;;;;;;5.63;2.67;;;6.30;99.90;;;;;;4920464;29;20436;-72
2023/02/27 13:13:23;;;;;;;5.33;3.20;;;6.30;99.90;;;;;;4919049;29;20532;-73